GLD1793 TVSB-TVSA
Flight info
| Callsign | GLD1793 |
|---|---|
| Flight time | 0h -13m |
| Altitude | 35000 |
| Route | DCT GUDAS DCT KESBI DCT LERIT DCT UKREK DCT |
| Aircraft | BE58/M-SDFGIRY/S |
Departure
| Time | 2026-05-03 20:28 |
|---|---|
| Airport | J F Mitchell Airport (TVSB) |
Arrival
| Time | 2026-05-03 20:15 |
|---|---|
| Airport | Argyle International Airport (TVSA) |
| Time | Latitude | Longitude | Altitude | Speed | Heading |
|---|---|---|---|---|---|
| 2026-05-03 20:15 | 13.16056 | -61.15106 | 78 ft | 0 kts | 128° |
| 2026-05-03 20:26 | 13.16055 | -61.15105 | 78 ft | 3 kts | 128° |
| 2026-05-03 20:26 | 13.16033 | -61.15048 | 76 ft | 13 kts | 102° |
| 2026-05-03 20:26 | 13.16005 | -61.14938 | 76 ft | 18 kts | 106° |
| 2026-05-03 20:26 | 13.16020 | -61.14861 | 75 ft | 11 kts | 15° |
| 2026-05-03 20:27 | 13.16151 | -61.14813 | 72 ft | 52 kts | 20° |
| 2026-05-03 20:27 | 13.16721 | -61.14591 | 53 ft | 114 kts | 20° |
| 2026-05-03 20:27 | 13.17539 | -61.14317 | 169 ft | 128 kts | 20° |
| 2026-05-03 20:27 | 13.18439 | -61.13990 | 257 ft | 151 kts | 25° |
| 2026-05-03 20:28 | 13.19469 | -61.13537 | 330 ft | 168 kts | 24° |
| 2026-05-03 20:28 | 13.20562 | -61.13111 | 380 ft | 172 kts | 21° |
| 2026-05-03 20:28 | 13.21712 | -61.12675 | 513 ft | 176 kts | 22° |
| 2026-05-03 20:28 | 13.22806 | -61.12255 | 866 ft | 161 kts | 24° |
| 2026-05-03 20:29 | 13.23826 | -61.11862 | 1314 ft | 154 kts | 25° |
| 2026-05-03 20:29 | 13.24829 | -61.11481 | 1747 ft | 155 kts | 26° |
| 2026-05-03 20:29 | 13.25893 | -61.11068 | 1786 ft | 172 kts | 25° |
| 2026-05-03 20:29 | 13.27049 | -61.10607 | 1798 ft | 184 kts | 25° |
| 2026-05-03 20:30 | 13.28236 | -61.10133 | 1798 ft | 181 kts | 25° |
| 2026-05-03 20:30 | 13.29401 | -61.09666 | 1799 ft | 179 kts | 25° |
| 2026-05-03 20:30 | 13.30551 | -61.09205 | 1798 ft | 177 kts | 26° |
| 2026-05-03 20:30 | 13.31690 | -61.08747 | 1800 ft | 175 kts | 25° |
| 2026-05-03 20:31 | 13.32817 | -61.08292 | 1798 ft | 172 kts | 25° |
| 2026-05-03 20:31 | 13.33896 | -61.07857 | 1789 ft | 161 kts | 26° |
| 2026-05-03 20:31 | 13.34907 | -61.07458 | 1784 ft | 151 kts | 27° |
| 2026-05-03 20:31 | 13.35877 | -61.07081 | 1786 ft | 147 kts | 25° |
| 2026-05-03 20:32 | 13.36826 | -61.06713 | 1792 ft | 144 kts | 26° |
| 2026-05-03 20:32 | 13.37746 | -61.06361 | 1791 ft | 138 kts | 27° |
| 2026-05-03 20:32 | 13.38622 | -61.06040 | 1795 ft | 130 kts | 25° |
| 2026-05-03 20:32 | 13.39465 | -61.05742 | 1793 ft | 126 kts | 25° |
| 2026-05-03 20:33 | 13.40288 | -61.05462 | 1795 ft | 123 kts | 25° |
| 2026-05-03 20:33 | 13.41083 | -61.05203 | 1795 ft | 118 kts | 24° |
| 2026-05-03 20:33 | 13.41867 | -61.04956 | 1798 ft | 118 kts | 25° |
| 2026-05-03 20:33 | 13.42641 | -61.04719 | 1798 ft | 117 kts | 26° |
| 2026-05-03 20:34 | 13.43412 | -61.04493 | 1797 ft | 114 kts | 23° |
| 2026-05-03 20:34 | 13.44178 | -61.04278 | 1783 ft | 114 kts | 22° |
| 2026-05-03 20:34 | 13.44955 | -61.04065 | 1724 ft | 118 kts | 23° |
| 2026-05-03 20:34 | 13.45763 | -61.03843 | 1653 ft | 121 kts | 22° |
| 2026-05-03 20:35 | 13.46600 | -61.03614 | 1591 ft | 127 kts | 24° |
| 2026-05-03 20:35 | 13.47469 | -61.03377 | 1530 ft | 132 kts | 22° |
| 2026-05-03 20:35 | 13.48362 | -61.03135 | 1471 ft | 133 kts | 22° |
| 2026-05-03 20:35 | 13.49262 | -61.02893 | 1408 ft | 136 kts | 22° |
| 2026-05-03 20:36 | 13.50200 | -61.02641 | 1337 ft | 141 kts | 21° |
| 2026-05-03 20:36 | 13.51151 | -61.02388 | 1267 ft | 140 kts | 20° |
| 2026-05-03 20:36 | 13.52098 | -61.02142 | 1200 ft | 141 kts | 20° |
| 2026-05-03 20:36 | 13.53032 | -61.01904 | 1130 ft | 140 kts | 19° |
| 2026-05-03 20:37 | 13.53976 | -61.01669 | 1061 ft | 139 kts | 20° |
| 2026-05-03 20:37 | 13.54909 | -61.01441 | 1005 ft | 135 kts | 19° |
| 2026-05-03 20:37 | 13.55807 | -61.01232 | 1001 ft | 131 kts | 19° |
| 2026-05-03 20:37 | 13.56687 | -61.01036 | 996 ft | 128 kts | 18° |
| 2026-05-03 20:38 | 13.57536 | -61.00858 | 996 ft | 122 kts | 18° |
| 2026-05-03 20:38 | 13.58369 | -61.00688 | 998 ft | 127 kts | 17° |
| 2026-05-03 20:38 | 13.59259 | -61.00502 | 998 ft | 131 kts | 19° |
| 2026-05-03 20:38 | 13.60150 | -61.00318 | 1008 ft | 130 kts | 19° |
| 2026-05-03 20:39 | 13.61042 | -61.00137 | 1012 ft | 133 kts | 18° |
| 2026-05-03 20:39 | 13.61941 | -60.99954 | 1009 ft | 129 kts | 17° |
| 2026-05-03 20:39 | 13.62791 | -60.99786 | 998 ft | 120 kts | 18° |
| 2026-05-03 20:39 | 13.63584 | -60.99635 | 994 ft | 114 kts | 17° |
| 2026-05-03 20:40 | 13.64351 | -60.99500 | 998 ft | 110 kts | 18° |
| 2026-05-03 20:40 | 13.65098 | -60.99376 | 996 ft | 106 kts | 18° |
| 2026-05-03 20:40 | 13.65816 | -60.99266 | 998 ft | 103 kts | 16° |
| 2026-05-03 20:40 | 13.66529 | -60.99166 | 998 ft | 103 kts | 15° |
| 2026-05-03 20:41 | 13.67247 | -60.99069 | 997 ft | 104 kts | 14° |
| 2026-05-03 20:41 | 13.67962 | -60.98974 | 996 ft | 103 kts | 18° |
| 2026-05-03 20:41 | 13.68669 | -60.98886 | 1000 ft | 102 kts | 17° |
| 2026-05-03 20:41 | 13.69395 | -60.98800 | 1009 ft | 108 kts | 15° |
| 2026-05-03 20:42 | 13.70155 | -60.98709 | 1016 ft | 113 kts | 14° |
| 2026-05-03 20:42 | 13.70942 | -60.98594 | 1014 ft | 115 kts | 24° |
| 2026-05-03 20:42 | 13.71694 | -60.98291 | 1019 ft | 119 kts | 26° |
| 2026-05-03 20:42 | 13.72477 | -60.97997 | 923 ft | 121 kts | 25° |
| 2026-05-03 20:43 | 13.73055 | -60.97635 | 669 ft | 83 kts | 53° |
| 2026-05-03 20:43 | 13.73312 | -60.97149 | 299 ft | 76 kts | 79° |
| 2026-05-03 20:43 | 13.73345 | -60.96623 | 86 ft | 73 kts | 94° |
| 2026-05-03 20:43 | 13.73335 | -60.96130 | 23 ft | 66 kts | 89° |
| 2026-05-03 20:44 | 13.73350 | -60.95669 | 18 ft | 61 kts | 93° |
| 2026-05-03 20:44 | 13.73338 | -60.95294 | 11 ft | 35 kts | 89° |
| 2026-05-03 20:44 | 13.73369 | -60.95165 | 10 ft | 11 kts | 23° |
| 2026-05-03 20:44 | 13.73377 | -60.95162 | 10 ft | 0 kts | 19° |
| 2026-05-03 20:45 | 13.73380 | -60.95161 | 10 ft | 4 kts | 18° |
| 2026-05-03 20:45 | 13.73434 | -60.95154 | 10 ft | 11 kts | 5° |
| 2026-05-03 20:46 | 13.73504 | -60.95139 | 11 ft | 8 kts | 36° |
| 2026-05-03 20:46 | 13.73536 | -60.95103 | 11 ft | 6 kts | 52° |
| 2026-05-03 20:46 | 13.73561 | -60.95075 | 11 ft | 5 kts | 22° |
| 2026-05-03 20:46 | 13.73576 | -60.95073 | 11 ft | 0 kts | 1° |
| 2026-05-03 20:55 | 13.73596 | -60.95082 | 11 ft | 8 kts | 285° |
| 2026-05-03 20:55 | 13.73548 | -60.95115 | 11 ft | 9 kts | 201° |
| 2026-05-03 20:55 | 13.73479 | -60.95142 | 11 ft | 11 kts | 198° |
| 2026-05-03 20:56 | 13.73399 | -60.95158 | 10 ft | 12 kts | 181° |
| 2026-05-03 20:56 | 13.73342 | -60.95118 | 9 ft | 17 kts | 94° |
| 2026-05-03 20:56 | 13.73341 | -60.94710 | 31 ft | 87 kts | 89° |
| 2026-05-03 20:56 | 13.73164 | -60.94069 | 302 ft | 118 kts | 152° |
| 2026-05-03 20:57 | 13.72208 | -60.93951 | 534 ft | 144 kts | 169° |
| 2026-05-03 20:57 | 13.71160 | -60.93845 | 890 ft | 150 kts | 195° |
| 2026-05-03 20:57 | 13.70739 | -60.94780 | 1381 ft | 164 kts | 279° |
| 2026-05-03 20:57 | 13.70964 | -60.96095 | 1122 ft | 202 kts | 284° |
| 2026-05-03 20:58 | 13.71479 | -60.97461 | 1124 ft | 210 kts | 296° |
| 2026-05-03 20:58 | 13.72132 | -60.98843 | 878 ft | 224 kts | 300° |
| 2026-05-03 20:58 | 13.72854 | -61.00226 | 1008 ft | 215 kts | 302° |
| 2026-05-03 20:58 | 13.73643 | -61.01501 | 1249 ft | 204 kts | 308° |
| 2026-05-03 20:59 | 13.74487 | -61.02654 | 1345 ft | 207 kts | 310° |
| 2026-05-03 20:59 | 13.75405 | -61.03832 | 1393 ft | 208 kts | 313° |
| 2026-05-03 20:59 | 13.76374 | -61.04953 | 1389 ft | 213 kts | 315° |
| 2026-05-03 20:59 | 13.77381 | -61.06075 | 1447 ft | 211 kts | 315° |
| 2026-05-03 21:00 | 13.78392 | -61.07152 | 1363 ft | 217 kts | 319° |
| 2026-05-03 21:00 | 13.78765 | -61.07515 | 1309 ft | 219 kts | 319° |
| 2026-05-03 21:00 | 13.80652 | -61.09312 | 1083 ft | 225 kts | 320° |
| 2026-05-03 21:00 | 13.81803 | -61.10409 | 1010 ft | 226 kts | 319° |
| 2026-05-03 21:01 | 13.82957 | -61.11500 | 1005 ft | 224 kts | 322° |
| 2026-05-03 21:01 | 13.84344 | -61.12144 | 995 ft | 218 kts | 356° |
| 2026-05-03 21:01 | 13.85798 | -61.11922 | 1000 ft | 209 kts | 22° |
| 2026-05-03 21:01 | 13.87153 | -61.11411 | 1004 ft | 207 kts | 24° |
| 2026-05-03 21:02 | 13.88049 | -61.11061 | 1002 ft | 207 kts | 25° |
| 2026-05-03 21:02 | 13.89820 | -61.10372 | 996 ft | 191 kts | 25° |
| 2026-05-03 21:02 | 13.90614 | -61.10073 | 998 ft | 177 kts | 24° |
| 2026-05-03 21:02 | 13.91708 | -61.09658 | 994 ft | 160 kts | 26° |
| 2026-05-03 21:03 | 13.92712 | -61.09275 | 997 ft | 149 kts | 25° |
| 2026-05-03 21:03 | 13.93665 | -61.08898 | 1001 ft | 141 kts | 27° |
| 2026-05-03 21:03 | 13.94551 | -61.08564 | 997 ft | 131 kts | 27° |
| 2026-05-03 21:03 | 13.95369 | -61.08188 | 999 ft | 127 kts | 30° |
| 2026-05-03 21:04 | 13.96162 | -61.07812 | 997 ft | 122 kts | 29° |
| 2026-05-03 21:04 | 13.96902 | -61.07429 | 995 ft | 116 kts | 38° |
| 2026-05-03 21:04 | 13.97515 | -61.06931 | 1003 ft | 104 kts | 47° |
| 2026-05-03 21:04 | 13.98034 | -61.06482 | 996 ft | 90 kts | 53° |
| 2026-05-03 21:05 | 13.98441 | -61.06040 | 993 ft | 79 kts | 58° |
| 2026-05-03 21:05 | 13.98748 | -61.05609 | 996 ft | 70 kts | 60° |
| 2026-05-03 21:05 | 13.99052 | -61.05228 | 994 ft | 67 kts | 60° |
| 2026-05-03 21:05 | 13.99386 | -61.04792 | 1024 ft | 87 kts | 59° |
| 2026-05-03 21:06 | 13.99779 | -61.04254 | 1026 ft | 100 kts | 59° |
| 2026-05-03 21:06 | 14.00192 | -61.03641 | 1023 ft | 110 kts | 60° |
| 2026-05-03 21:06 | 14.00676 | -61.03032 | 773 ft | 104 kts | 57° |
| 2026-05-03 21:06 | 14.01073 | -61.02484 | 531 ft | 86 kts | 68° |
| 2026-05-03 21:07 | 14.01343 | -61.01935 | 385 ft | 90 kts | 75° |
| 2026-05-03 21:07 | 14.01515 | -61.01295 | 268 ft | 94 kts | 83° |
| 2026-05-03 21:07 | 14.01668 | -61.00635 | 141 ft | 95 kts | 82° |
| 2026-05-03 21:07 | 14.01831 | -60.99987 | 34 ft | 90 kts | 80° |
| 2026-05-03 21:08 | 14.01981 | -60.99436 | 4 ft | 71 kts | 83° |
| 2026-05-03 21:08 | 14.02042 | -60.99090 | 4 ft | 18 kts | 82° |
| 2026-05-03 21:08 | 14.02055 | -60.99106 | 4 ft | 9 kts | 253° |
| 2026-05-03 21:08 | 14.02036 | -60.99177 | 2 ft | 11 kts | 254° |
| 2026-05-03 21:09 | 14.02011 | -60.99273 | 0 ft | 16 kts | 255° |
| 2026-05-03 21:09 | 14.01982 | -60.99370 | 1 ft | 12 kts | 255° |
| 2026-05-03 21:09 | 14.01963 | -60.99439 | 2 ft | 8 kts | 253° |
| 2026-05-03 21:09 | 14.01956 | -60.99483 | 2 ft | 4 kts | 316° |
| 2026-05-03 21:10 | 14.01976 | -60.99490 | 2 ft | 3 kts | 335° |
| 2026-05-03 21:10 | 14.01990 | -60.99511 | 3 ft | 4 kts | 302° |
| 2026-05-03 21:10 | 14.02015 | -60.99528 | 3 ft | 4 kts | 350° |
| 2026-05-03 21:10 | 14.02025 | -60.99537 | 4 ft | 0 kts | 253° |
| 2026-05-03 21:18 | 14.02019 | -60.99541 | 4 ft | 0 kts | 221° |